Time;durP1;ratioP1;P1;durP2;ratioP2;P2;SDS_P1;SDS_P2;PMS_P1;PMS_P2;Temp;Humidity;BMP_temperature;BMP_pressure;BME280_temperature;BME280_humidity;BME280_pressure;Samples;Min_cycle;Max_cycle;Signal;HPM_P1;HPM_P2
2022/06/28 00:00:08;;;;;;;3.80;2.95;;;;;;;;;;4290070;33;20115;-65
2022/06/28 00:02:34;;;;;;;4.62;3.03;;;;;;;;;;4278345;33;20754;-65
2022/06/28 00:33:28;;;;;;;4.10;2.50;;;;;;;;;;4857096;27;20115;-63
2022/06/28 00:35:54;;;;;;;5.82;2.90;;;;;;;;;;4310459;33;20122;-63
2022/06/28 00:38:20;;;;;;;4.12;3.37;;;;;;;;;;4304075;33;20092;-64
2022/06/28 00:40:48;;;;;;;6.28;2.50;;;;;;;;;;4293611;33;20514;-62
2022/06/28 00:43:15;;;;;;;4.43;3.00;;;;;;;;;;4283247;33;20442;-64
2022/06/28 00:45:45;;;;;;;4.37;3.12;;;;;;;;;;4295079;33;20177;-64
2022/06/28 00:48:16;;;;;;;3.97;2.60;;;;;;;;;;4292614;33;20111;-64
2022/06/28 00:50:42;;;;;;;3.72;2.95;;;;;;;;;;4280742;33;20794;-64
2022/06/28 00:53:16;;;;;;;3.42;2.70;;;;;;;;;;4294783;33;20122;-65
2022/06/28 00:55:43;;;;;;;3.80;2.78;;;;;;;;;;4295307;33;20100;-65
2022/06/28 00:58:09;;;;;;;4.62;2.80;;;;;;;;;;4295042;33;20099;-64
2022/06/28 01:00:42;;;;;;;3.45;2.50;;;;;;;;;;4299671;33;20451;-65
2022/06/28 01:03:11;;;;;;;2.83;2.55;;;;;;;;;;4275105;33;20111;-65
2022/06/28 01:05:38;;;;;;;7.50;3.25;;;;;;;;;;4280715;33;20119;-65
2022/06/28 01:08:05;;;;;;;4.75;2.75;;;;;;;;;;4277478;33;20099;-66
2022/06/28 01:10:32;;;;;;;5.68;2.80;;;;;;;;;;4302804;33;20127;-66
2022/06/28 01:12:58;;;;;;;6.10;2.97;;;;;;;;;;4302654;33;20517;-65
2022/06/28 01:15:24;;;;;;;4.22;3.12;;;;;;;;;;4276329;33;20127;-65
2022/06/28 01:17:50;;;;;;;4.03;3.00;;;;;;;;;;4288189;33;20451;-65
2022/06/28 01:20:16;;;;;;;5.53;3.85;;;;;;;;;;4290311;33;20111;-65
2022/06/28 01:22:42;;;;;;;3.67;3.03;;;;;;;;;;4290451;33;20210;-65
2022/06/28 01:25:09;;;;;;;4.28;3.58;;;;;;;;;;4290537;33;20110;-65
2022/06/28 01:27:35;;;;;;;6.15;2.80;;;;;;;;;;4277168;33;20109;-65
2022/06/28 01:30:03;;;;;;;6.57;3.67;;;;;;;;;;4290475;33;20124;-65
2022/06/28 01:32:30;;;;;;;5.85;3.12;;;;;;;;;;4303560;33;20104;-65
2022/06/28 01:34:56;;;;;;;5.30;3.70;;;;;;;;;;4291702;33;20111;-65
2022/06/28 01:37:22;;;;;;;5.93;3.53;;;;;;;;;;4304865;33;20498;-64
2022/06/28 01:39:48;;;;;;;4.95;3.90;;;;;;;;;;4279525;33;20535;-65
2022/06/28 01:42:14;;;;;;;6.62;2.90;;;;;;;;;;4304816;33;20118;-64
2022/06/28 01:44:41;;;;;;;4.35;2.90;;;;;;;;;;4304841;33;20111;-63
2022/06/28 01:47:08;;;;;;;5.07;3.20;;;;;;;;;;4304909;33;20103;-64
2022/06/28 01:49:34;;;;;;;4.47;3.00;;;;;;;;;;4304644;33;20186;-64
2022/06/28 01:52:00;;;;;;;6.18;2.90;;;;;;;;;;4304735;33;20107;-64
2022/06/28 01:54:26;;;;;;;4.50;2.80;;;;;;;;;;4304885;33;20107;-64
2022/06/28 01:56:52;;;;;;;5.53;3.17;;;;;;;;;;4304983;33;20541;-63
2022/06/28 01:59:18;;;;;;;6.07;3.08;;;;;;;;;;4292220;33;20114;-63
2022/06/28 02:01:44;;;;;;;4.72;2.95;;;;;;;;;;4290236;33;20088;-64
2022/06/28 02:04:27;;;;;;;5.12;2.55;;;;;;;;;;4290007;33;20647;-64
2022/06/28 02:06:54;;;;;;;4.10;2.95;;;;;;;;;;4290409;33;20124;-64
2022/06/28 02:09:20;;;;;;;3.22;2.72;;;;;;;;;;4265300;33;20128;-64
2022/06/28 02:11:46;;;;;;;3.35;2.85;;;;;;;;;;4290004;33;20207;-63
2022/06/28 02:14:12;;;;;;;4.30;2.62;;;;;;;;;;4290062;33;20218;-64
2022/06/28 02:16:38;;;;;;;3.75;2.85;;;;;;;;;;4290009;33;20514;-64
2022/06/28 02:19:04;;;;;;;4.78;2.87;;;;;;;;;;4290258;33;20139;-64
2022/06/28 02:21:40;;;;;;;3.53;2.50;;;;;;;;;;4276883;33;20529;-64
2022/06/28 02:24:08;;;;;;;5.90;3.10;;;;;;;;;;4289967;33;20123;-64
2022/06/28 02:26:34;;;;;;;5.07;2.97;;;;;;;;;;4276651;33;20235;-64
2022/06/28 02:29:00;;;;;;;5.50;2.97;;;;;;;;;;4290155;33;20103;-64
2022/06/28 02:31:26;;;;;;;2.95;2.58;;;;;;;;;;4289155;33;20222;-64
2022/06/28 02:33:53;;;;;;;2.90;2.60;;;;;;;;;;4290059;33;20108;-64
2022/06/28 02:41:56;;;;;;;3.90;2.40;;;;;;;;;;4249433;33;20100;-65
2022/06/28 02:44:22;;;;;;;3.33;2.62;;;;;;;;;;4289747;33;20159;-64
2022/06/28 02:46:48;;;;;;;3.42;2.37;;;;;;;;;;4289827;33;20190;-64
2022/06/28 02:49:15;;;;;;;8.95;3.80;;;;;;;;;;4276403;33;20124;-64
2022/06/28 02:51:42;;;;;;;7.90;3.03;;;;;;;;;;4276328;33;20099;-65
2022/06/28 02:54:08;;;;;;;5.20;2.25;;;;;;;;;;4276741;33;20108;-64
2022/06/28 02:56:35;;;;;;;3.58;2.47;;;;;;;;;;4289774;33;20351;-64
2022/06/28 02:59:01;;;;;;;2.85;2.22;;;;;;;;;;4296858;33;20111;-64
2022/06/28 03:01:27;;;;;;;5.68;2.72;;;;;;;;;;4304121;33;20538;-63
2022/06/28 03:03:53;;;;;;;3.40;2.22;;;;;;;;;;4304238;33;20121;-64
2022/06/28 03:06:19;;;;;;;6.85;2.70;;;;;;;;;;4304051;33;20128;-64
2022/06/28 03:08:45;;;;;;;3.00;2.30;;;;;;;;;;4290561;33;20214;-63
2022/06/28 03:11:11;;;;;;;6.35;2.37;;;;;;;;;;4304022;33;20112;-63
2022/06/28 03:13:37;;;;;;;3.60;2.47;;;;;;;;;;4303951;33;20527;-64
2022/06/28 03:16:07;;;;;;;3.35;2.80;;;;;;;;;;4304015;33;20222;-64
2022/06/28 03:18:33;;;;;;;2.55;2.12;;;;;;;;;;4303879;33;20110;-64
2022/06/28 03:20:59;;;;;;;6.28;2.20;;;;;;;;;;4304163;33;20119;-64
2022/06/28 03:23:24;;;;;;;4.30;2.65;;;;;;;;;;4303989;33;20133;-64
2022/06/28 03:25:50;;;;;;;3.58;1.75;;;;;;;;;;4303949;33;20530;-64
2022/06/28 03:28:16;;;;;;;4.20;2.80;;;;;;;;;;4303966;33;20118;-64
2022/06/28 03:30:42;;;;;;;3.87;2.30;;;;;;;;;;4304100;33;20191;-63
2022/06/28 03:33:08;;;;;;;7.43;2.50;;;;;;;;;;4303827;33;20220;-63
2022/06/28 03:35:34;;;;;;;3.47;2.47;;;;;;;;;;4303848;33;20189;-63
2022/06/28 03:38:01;;;;;;;10.93;2.72;;;;;;;;;;4303807;33;20108;-64
2022/06/28 03:40:27;;;;;;;6.85;3.15;;;;;;;;;;4304064;33;20114;-64
2022/06/28 03:42:53;;;;;;;4.65;2.62;;;;;;;;;;4303854;33;20194;-64
2022/06/28 03:45:19;;;;;;;5.70;2.72;;;;;;;;;;4303693;33;20099;-64
2022/06/28 03:47:45;;;;;;;5.82;3.10;;;;;;;;;;4303542;33;20103;-64
2022/06/28 03:50:11;;;;;;;5.10;3.12;;;;;;;;;;4303729;33;20529;-65
2022/06/28 03:52:37;;;;;;;3.85;2.80;;;;;;;;;;4303581;33;20106;-64
2022/06/28 03:55:06;;;;;;;6.25;2.95;;;;;;;;;;4303548;33;20503;-65
2022/06/28 03:57:32;;;;;;;8.40;3.00;;;;;;;;;;4290199;33;20432;-65
2022/06/28 03:59:59;;;;;;;2.65;2.42;;;;;;;;;;4299807;33;20183;-64
2022/06/28 04:02:25;;;;;;;3.90;2.60;;;;;;;;;;4296533;33;20096;-65
2022/06/28 04:04:51;;;;;;;9.05;2.55;;;;;;;;;;4296946;33;20098;-64
2022/06/28 04:07:18;;;;;;;5.25;2.72;;;;;;;;;;4295736;33;20459;-64
2022/06/28 04:09:44;;;;;;;7.62;2.40;;;;;;;;;;4294694;33;20141;-64
2022/06/28 04:12:10;;;;;;;4.35;2.90;;;;;;;;;;4301577;33;20202;-65
2022/06/28 04:14:36;;;;;;;5.43;2.90;;;;;;;;;;4277852;33;20122;-65
2022/06/28 04:17:02;;;;;;;5.72;2.55;;;;;;;;;;4290419;33;20203;-65
2022/06/28 04:19:28;;;;;;;3.58;2.40;;;;;;;;;;4314046;33;20135;-67
2022/06/28 04:21:54;;;;;;;5.70;2.67;;;;;;;;;;4289990;33;20107;-63
2022/06/28 04:24:20;;;;;;;3.58;2.70;;;;;;;;;;4303276;33;20214;-65
2022/06/28 04:26:46;;;;;;;7.78;2.75;;;;;;;;;;4302898;33;20126;-64
2022/06/28 04:29:12;;;;;;;6.20;2.70;;;;;;;;;;4303532;33;20708;-64
2022/06/28 04:31:38;;;;;;;7.45;3.15;;;;;;;;;;4303226;33;20099;-69
2022/06/28 04:34:04;;;;;;;3.10;2.80;;;;;;;;;;4303617;33;20198;-66
2022/06/28 04:36:30;;;;;;;8.32;2.87;;;;;;;;;;4298577;33;20099;-66
2022/06/28 04:38:56;;;;;;;5.15;2.75;;;;;;;;;;4298841;33;20111;-65
2022/06/28 04:41:24;;;;;;;4.45;2.60;;;;;;;;;;4287348;33;20197;-65
2022/06/28 04:43:53;;;;;;;2.92;2.60;;;;;;;;;;4296762;33;20204;-64
2022/06/28 04:46:20;;;;;;;6.20;2.20;;;;;;;;;;4295873;33;20111;-65
2022/06/28 04:48:46;;;;;;;5.25;2.97;;;;;;;;;;4275535;33;20112;-66
2022/06/28 04:51:12;;;;;;;5.85;2.80;;;;;;;;;;4288781;33;20533;-67
2022/06/28 04:53:45;;;;;;;7.68;2.60;;;;;;;;;;4291746;33;20121;-67
2022/06/28 04:56:11;;;;;;;4.57;2.40;;;;;;;;;;4305283;33;20099;-64
2022/06/28 04:58:37;;;;;;;4.57;2.53;;;;;;;;;;4286785;33;20507;-64
2022/06/28 05:01:03;;;;;;;3.58;2.58;;;;;;;;;;4291026;33;20095;-61
2022/06/28 05:03:31;;;;;;;3.42;2.20;;;;;;;;;;4277537;33;20214;-60
2022/06/28 05:05:57;;;;;;;8.70;2.95;;;;;;;;;;4292517;33;20560;-61
2022/06/28 05:08:23;;;;;;;3.33;2.58;;;;;;;;;;4290758;33;20107;-61
2022/06/28 05:10:49;;;;;;;5.53;2.40;;;;;;;;;;4301008;33;20119;-65
2022/06/28 05:13:15;;;;;;;5.95;2.30;;;;;;;;;;4302809;33;20629;-63
2022/06/28 05:15:41;;;;;;;6.85;2.50;;;;;;;;;;4301142;33;20222;-63
2022/06/28 05:18:08;;;;;;;4.80;3.05;;;;;;;;;;4280116;33;20120;-63
2022/06/28 05:20:34;;;;;;;5.95;2.30;;;;;;;;;;4294213;33;20474;-63
2022/06/28 05:23:00;;;;;;;9.57;3.25;;;;;;;;;;4295845;33;20571;-62
2022/06/28 05:25:26;;;;;;;3.65;2.30;;;;;;;;;;4277297;33;20802;-64
2022/06/28 05:27:52;;;;;;;4.30;2.60;;;;;;;;;;4296513;33;20104;-63
2022/06/28 05:30:18;;;;;;;4.85;1.85;;;;;;;;;;4298512;33;20205;-63
2022/06/28 05:32:44;;;;;;;8.45;2.42;;;;;;;;;;4291521;33;20122;-63
2022/06/28 05:35:10;;;;;;;2.40;1.80;;;;;;;;;;4305344;33;20226;-63
2022/06/28 05:37:36;;;;;;;3.17;1.65;;;;;;;;;;4304973;33;20190;-63
2022/06/28 05:40:03;;;;;;;4.70;2.10;;;;;;;;;;4291420;33;20133;-63
2022/06/28 05:42:29;;;;;;;5.93;2.20;;;;;;;;;;4279156;33;20201;-64
2022/06/28 05:44:55;;;;;;;2.60;1.95;;;;;;;;;;4304785;33;20141;-64
2022/06/28 05:47:21;;;;;;;2.33;2.12;;;;;;;;;;4291520;33;20559;-64
2022/06/28 05:49:47;;;;;;;2.20;2.00;;;;;;;;;;4305028;33;20094;-64
2022/06/28 05:52:13;;;;;;;3.03;2.15;;;;;;;;;;4304554;33;20434;-63
2022/06/28 05:54:40;;;;;;;3.75;1.90;;;;;;;;;;4304765;33;20114;-62
2022/06/28 05:57:06;;;;;;;4.22;2.62;;;;;;;;;;4304691;33;20107;-63
2022/06/28 05:59:32;;;;;;;3.85;2.80;;;;;;;;;;4294604;33;20103;-63
2022/06/28 06:01:58;;;;;;;1.80;1.70;;;;;;;;;;4290211;33;20562;-63
2022/06/28 06:04:25;;;;;;;3.60;1.98;;;;;;;;;;4276625;33;20134;-63
2022/06/28 06:06:52;;;;;;;6.12;2.03;;;;;;;;;;4289349;33;20182;-63
2022/06/28 06:09:18;;;;;;;3.30;1.85;;;;;;;;;;4290410;33;20115;-63
2022/06/28 06:11:44;;;;;;;5.53;1.90;;;;;;;;;;4290062;33;20088;-63
2022/06/28 06:14:11;;;;;;;2.08;1.80;;;;;;;;;;4290145;33;20123;-63
2022/06/28 06:16:37;;;;;;;2.22;1.60;;;;;;;;;;4276978;33;20100;-62
2022/06/28 06:19:03;;;;;;;4.35;1.83;;;;;;;;;;4289971;33;20467;-62
2022/06/28 06:21:29;;;;;;;4.00;2.00;;;;;;;;;;4276636;33;20099;-63
2022/06/28 06:23:55;;;;;;;4.03;1.87;;;;;;;;;;4290309;33;20447;-61
2022/06/28 06:26:21;;;;;;;4.62;1.73;;;;;;;;;;4290313;33;21148;-61
2022/06/28 06:28:47;;;;;;;3.75;1.87;;;;;;;;;;4289756;33;20124;-63
2022/06/28 06:31:13;;;;;;;5.55;1.50;;;;;;;;;;4290322;33;20115;-61
2022/06/28 06:33:39;;;;;;;4.10;1.80;;;;;;;;;;4276550;33;20116;-63
2022/06/28 06:36:05;;;;;;;7.18;2.17;;;;;;;;;;4290019;33;20108;-62
2022/06/28 06:38:31;;;;;;;9.82;2.12;;;;;;;;;;4289707;33;20586;-61
2022/06/28 06:40:59;;;;;;;10.93;2.65;;;;;;;;;;4289920;33;20123;-62
2022/06/28 06:43:28;;;;;;;8.10;2.00;;;;;;;;;;4289921;33;20111;-62
2022/06/28 06:45:54;;;;;;;3.85;1.60;;;;;;;;;;4276516;33;20112;-62
2022/06/28 06:48:21;;;;;;;6.97;1.95;;;;;;;;;;4276646;33;20092;-65
2022/06/28 06:50:48;;;;;;;5.43;1.55;;;;;;;;;;4276554;33;20510;-63
2022/06/28 06:53:14;;;;;;;2.72;1.60;;;;;;;;;;4264542;33;20468;-63
2022/06/28 06:55:41;;;;;;;1.70;1.35;;;;;;;;;;4289796;33;20218;-63
2022/06/28 06:58:07;;;;;;;5.32;2.35;;;;;;;;;;4277768;33;20202;-62
2022/06/28 07:00:34;;;;;;;4.32;1.60;;;;;;;;;;4304556;33;20133;-62
2022/06/28 07:03:03;;;;;;;4.05;1.77;;;;;;;;;;4304315;33;20100;-63
2022/06/28 07:05:30;;;;;;;2.75;1.50;;;;;;;;;;4304227;33;20546;-63
2022/06/28 07:07:56;;;;;;;6.85;2.10;;;;;;;;;;4303927;33;20594;-63
2022/06/28 07:10:22;;;;;;;4.03;1.83;;;;;;;;;;4304097;33;20534;-62
2022/06/28 07:12:48;;;;;;;6.95;1.90;;;;;;;;;;4304051;33;20180;-63
2022/06/28 07:15:14;;;;;;;12.07;2.15;;;;;;;;;;4290804;33;20118;-62
2022/06/28 07:17:41;;;;;;;2.53;1.75;;;;;;;;;;4303492;33;20214;-64
2022/06/28 07:20:07;;;;;;;4.07;1.80;;;;;;;;;;4290830;33;20131;-63
2022/06/28 07:22:33;;;;;;;6.72;1.70;;;;;;;;;;4304062;33;20142;-63
2022/06/28 07:25:00;;;;;;;2.45;1.85;;;;;;;;;;4303963;33;20455;-62
2022/06/28 07:27:27;;;;;;;3.33;1.52;;;;;;;;;;4290403;33;20119;-63
2022/06/28 07:29:53;;;;;;;4.50;1.73;;;;;;;;;;4304002;33;20535;-63
2022/06/28 07:32:19;;;;;;;4.82;2.40;;;;;;;;;;4303999;33;20209;-64
2022/06/28 07:34:45;;;;;;;4.47;1.60;;;;;;;;;;4303811;33;20455;-66
2022/06/28 07:37:11;;;;;;;2.20;1.83;;;;;;;;;;4304114;33;20138;-63
2022/06/28 07:39:38;;;;;;;2.60;1.87;;;;;;;;;;4278638;33;20130;-63
2022/06/28 07:42:04;;;;;;;3.97;1.90;;;;;;;;;;4290647;33;20122;-63
2022/06/28 07:44:30;;;;;;;3.67;2.00;;;;;;;;;;4303636;33;20104;-63
2022/06/28 07:46:56;;;;;;;2.42;1.95;;;;;;;;;;4303963;33;20090;-64
2022/06/28 07:49:22;;;;;;;3.03;1.80;;;;;;;;;;4303916;33;20130;-63
2022/06/28 07:54:33;;;;;;;2.03;1.75;;;;;;;;;;4303894;33;20179;-63
2022/06/28 07:56:59;;;;;;;3.30;1.83;;;;;;;;;;4303615;33;20094;-64
2022/06/28 07:59:25;;;;;;;7.30;2.20;;;;;;;;;;4303990;33;20523;-65
2022/06/28 08:01:51;;;;;;;3.15;1.60;;;;;;;;;;4303496;33;20561;-64
2022/06/28 08:04:17;;;;;;;4.15;1.83;;;;;;;;;;4303750;33;20100;-63
2022/06/28 08:06:43;;;;;;;7.93;1.90;;;;;;;;;;4303615;33;20106;-62
2022/06/28 08:09:09;;;;;;;3.67;1.90;;;;;;;;;;4303328;33;20115;-63
2022/06/28 08:11:35;;;;;;;3.12;1.90;;;;;;;;;;4303434;33;20531;-63
2022/06/28 08:14:01;;;;;;;1.65;1.55;;;;;;;;;;4303529;33;20606;-63
2022/06/28 08:16:28;;;;;;;1.75;1.58;;;;;;;;;;4303554;33;20114;-64
2022/06/28 08:18:54;;;;;;;3.53;1.30;;;;;;;;;;4266158;33;20714;-70
2022/06/28 08:21:20;;;;;;;6.22;1.73;;;;;;;;;;4303419;33;20218;-64
2022/06/28 08:23:46;;;;;;;2.45;1.33;;;;;;;;;;4289889;33;20119;-63
2022/06/28 08:26:12;;;;;;;1.33;1.23;;;;;;;;;;4303615;33;20535;-64
2022/06/28 08:28:38;;;;;;;2.65;1.40;;;;;;;;;;4303601;33;20099;-64
2022/06/28 08:31:04;;;;;;;1.90;1.70;;;;;;;;;;4305486;33;20107;-63
2022/06/28 08:33:30;;;;;;;2.60;1.50;;;;;;;;;;4300985;33;20218;-64
2022/06/28 08:35:56;;;;;;;1.70;1.60;;;;;;;;;;4298005;33;20542;-63
2022/06/28 08:38:22;;;;;;;4.60;1.55;;;;;;;;;;4296436;33;20215;-64
2022/06/28 08:40:48;;;;;;;2.22;1.80;;;;;;;;;;4296621;33;20123;-64
2022/06/28 08:43:14;;;;;;;3.75;1.65;;;;;;;;;;4298036;33;20092;-64
2022/06/28 08:45:42;;;;;;;2.17;1.70;;;;;;;;;;4285950;33;20455;-64
2022/06/28 08:48:41;;;;;;;2.15;1.60;;;;;;;;;;4289521;33;20103;-63
2022/06/28 08:51:09;;;;;;;3.25;1.67;;;;;;;;;;4241793;33;20131;-62
2022/06/28 08:53:37;;;;;;;4.65;1.98;;;;;;;;;;4297375;33;20095;-62
2022/06/28 08:56:05;;;;;;;3.70;1.40;;;;;;;;;;4290866;33;20125;-62
2022/06/28 08:58:31;;;;;;;3.35;1.73;;;;;;;;;;4279498;33;20128;-62
2022/06/28 09:00:58;;;;;;;1.90;1.80;;;;;;;;;;4267103;33;20115;-63
2022/06/28 09:03:24;;;;;;;3.83;1.50;;;;;;;;;;4292526;33;20111;-63
2022/06/28 09:05:50;;;;;;;2.35;1.90;;;;;;;;;;4290782;33;20739;-62
2022/06/28 09:08:17;;;;;;;2.00;1.75;;;;;;;;;;4290587;33;20534;-62
2022/06/28 09:10:44;;;;;;;2.53;1.60;;;;;;;;;;4290984;33;20131;-62
2022/06/28 09:13:12;;;;;;;2.42;1.92;;;;;;;;;;4290469;33;20463;-63
2022/06/28 09:15:49;;;;;;;6.30;1.70;;;;;;;;;;4290968;33;20190;-63
2022/06/28 09:18:16;;;;;;;4.45;3.03;;;;;;;;;;4290585;33;20522;-64
2022/06/28 09:20:43;;;;;;;3.60;1.67;;;;;;;;;;4290565;33;20126;-63
2022/06/28 09:23:30;;;;;;;5.55;1.83;;;;;;;;;;4277271;33;20088;-64
2022/06/28 09:26:02;;;;;;;3.65;1.70;;;;;;;;;;4290793;33;20183;-63
2022/06/28 09:28:30;;;;;;;7.85;1.62;;;;;;;;;;4290775;33;20107;-64
2022/06/28 09:31:16;;;;;;;7.93;1.83;;;;;;;;;;4277276;33;20447;-64
2022/06/28 09:33:44;;;;;;;4.43;1.77;;;;;;;;;;4277710;33;20120;-64
2022/06/28 09:36:14;;;;;;;2.58;1.70;;;;;;;;;;4277170;33;20094;-63
2022/06/28 09:38:41;;;;;;;4.25;1.60;;;;;;;;;;4289332;33;20111;-62
2022/06/28 09:41:21;;;;;;;3.12;1.80;;;;;;;;;;4290264;33;20470;-63
2022/06/28 09:43:53;;;;;;;2.45;1.70;;;;;;;;;;4290134;33;20119;-63
2022/06/28 09:46:20;;;;;;;6.82;2.00;;;;;;;;;;4277106;33;20525;-63
2022/06/28 09:48:46;;;;;;;4.43;1.95;;;;;;;;;;4290074;33;20542;-63
2022/06/28 09:51:12;;;;;;;1.83;1.70;;;;;;;;;;4277186;33;20115;-64
2022/06/28 09:53:44;;;;;;;2.15;1.75;;;;;;;;;;4276884;33;20539;-64
2022/06/28 09:56:11;;;;;;;3.95;1.70;;;;;;;;;;4277774;33;20537;-63
2022/06/28 09:58:38;;;;;;;3.33;1.90;;;;;;;;;;4290128;33;20120;-64
2022/06/28 10:01:05;;;;;;;2.08;1.70;;;;;;;;;;4290500;33;20135;-63
2022/06/28 10:03:31;;;;;;;4.62;1.70;;;;;;;;;;4290065;33;20150;-63
2022/06/28 10:05:57;;;;;;;2.10;1.60;;;;;;;;;;4290436;33;20108;-63
2022/06/28 10:08:24;;;;;;;2.12;1.92;;;;;;;;;;4290297;33;20523;-65
2022/06/28 10:10:51;;;;;;;1.70;1.52;;;;;;;;;;4276871;33;20186;-64
2022/06/28 10:16:10;;;;;;;2.00;1.60;;;;;;;;;;4290155;33;20123;-65
2022/06/28 10:18:37;;;;;;;1.62;1.52;;;;;;;;;;4290227;33;20283;-65
2022/06/28 10:21:03;;;;;;;1.60;1.48;;;;;;;;;;4276771;33;20091;-65
2022/06/28 10:23:33;;;;;;;5.07;2.05;;;;;;;;;;4289926;33;20103;-65
2022/06/28 10:26:14;;;;;;;4.03;1.73;;;;;;;;;;4290077;33;20110;-65
2022/06/28 10:28:58;;;;;;;2.10;1.75;;;;;;;;;;4290056;33;20198;-64
2022/06/28 10:31:24;;;;;;;2.10;1.48;;;;;;;;;;4290169;33;20115;-64
2022/06/28 10:33:52;;;;;;;2.50;1.60;;;;;;;;;;4290052;33;20135;-64
2022/06/28 10:36:20;;;;;;;1.98;1.50;;;;;;;;;;4264690;33;20127;-64
2022/06/28 10:39:01;;;;;;;1.30;1.20;;;;;;;;;;4289915;33;20116;-65
2022/06/28 10:41:51;;;;;;;3.37;1.48;;;;;;;;;;4289835;33;20241;-65
2022/06/28 10:44:20;;;;;;;1.73;1.25;;;;;;;;;;4289891;33;20202;-65
2022/06/28 10:46:50;;;;;;;1.37;1.25;;;;;;;;;;4289853;33;20123;-65
2022/06/28 10:49:17;;;;;;;2.90;1.83;;;;;;;;;;4289615;33;20108;-64
2022/06/28 10:52:13;;;;;;;1.37;1.27;;;;;;;;;;4289148;33;20208;-64
2022/06/28 10:54:43;;;;;;;1.00;1.00;;;;;;;;;;4276341;33;20199;-64
2022/06/28 10:57:36;;;;;;;1.37;1.27;;;;;;;;;;4276391;33;20170;-64
2022/06/28 11:00:20;;;;;;;1.80;1.40;;;;;;;;;;4286701;33;20198;-64
2022/06/28 11:02:59;;;;;;;1.30;1.20;;;;;;;;;;4276580;33;20115;-64
2022/06/28 11:05:45;;;;;;;1.95;1.65;;;;;;;;;;4289727;33;20116;-63
2022/06/28 11:08:12;;;;;;;1.27;1.10;;;;;;;;;;4289522;33;20543;-63
2022/06/28 11:11:02;;;;;;;1.58;1.23;;;;;;;;;;4289592;33;20092;-64
2022/06/28 11:13:28;;;;;;;1.00;1.00;;;;;;;;;;4289423;33;20102;-63
2022/06/28 11:15:54;;;;;;;2.10;1.73;;;;;;;;;;4289664;33;20127;-64
2022/06/28 11:18:23;;;;;;;1.37;1.25;;;;;;;;;;4287894;33;20610;-64
2022/06/28 11:20:51;;;;;;;1.15;1.12;;;;;;;;;;4289552;33;20092;-64
2022/06/28 11:23:25;;;;;;;1.90;1.50;;;;;;;;;;4276159;33;20096;-64
2022/06/28 11:28:59;;;;;;;1.30;1.20;;;;;;;;;;4278024;33;20187;-62
2022/06/28 11:31:25;;;;;;;6.68;1.65;;;;;;;;;;4276125;33;20187;-65
2022/06/28 11:33:51;;;;;;;1.23;1.20;;;;;;;;;;4280635;33;20127;-65
2022/06/28 11:36:24;;;;;;;5.07;1.70;;;;;;;;;;4304091;33;20131;-64
2022/06/28 11:38:50;;;;;;;1.60;1.50;;;;;;;;;;4303953;33;20099;-64
2022/06/28 11:41:29;;;;;;;1.15;1.08;;;;;;;;;;4303866;33;20202;-64
2022/06/28 11:43:59;;;;;;;1.55;1.35;;;;;;;;;;4303712;33;20217;-62
2022/06/28 11:46:28;;;;;;;1.40;1.30;;;;;;;;;;4303855;33;20115;-64
2022/06/28 11:48:55;;;;;;;4.43;1.48;;;;;;;;;;4303518;33;20114;-64
2022/06/28 11:51:28;;;;;;;1.37;1.27;;;;;;;;;;4303779;33;20102;-62
2022/06/28 11:53:54;;;;;;;5.60;1.35;;;;;;;;;;4303393;33;20239;-63
2022/06/28 11:56:20;;;;;;;1.15;1.08;;;;;;;;;;4278626;33;20131;-64
2022/06/28 11:58:46;;;;;;;0.80;0.80;;;;;;;;;;4303747;33;20725;-64
2022/06/28 12:01:21;;;;;;;1.50;1.40;;;;;;;;;;4290550;33;20103;-63
2022/06/28 12:03:46;;;;;;;1.40;1.30;;;;;;;;;;4290248;33;20550;-63
2022/06/28 12:06:27;;;;;;;1.48;1.37;;;;;;;;;;4303804;33;20111;-64
2022/06/28 12:08:58;;;;;;;3.12;1.40;;;;;;;;;;4303543;33;20467;-66
2022/06/28 12:11:25;;;;;;;3.90;1.00;;;;;;;;;;4303485;33;20535;-63
2022/06/28 12:14:03;;;;;;;1.98;1.40;;;;;;;;;;4303354;33;20531;-63
2022/06/28 12:35:53;;;;;;;5.62;1.65;;;;;;;;;;4295826;33;20097;-66
2022/06/28 12:38:19;;;;;;;0.93;0.93;;;;;;;;;;4296263;33;20119;-65
2022/06/28 12:40:45;;;;;;;1.62;1.25;;;;;;;;;;4294960;33;20119;-66
2022/06/28 12:43:11;;;;;;;1.60;1.30;;;;;;;;;;4297705;33;20107;-65
2022/06/28 12:45:37;;;;;;;1.75;1.50;;;;;;;;;;4292910;33;20651;-67
2022/06/28 12:48:03;;;;;;;3.60;1.62;;;;;;;;;;4295097;33;20613;-66
2022/06/28 12:50:30;;;;;;;2.28;1.45;;;;;;;;;;4290200;33;20122;-64
2022/06/28 12:52:57;;;;;;;1.92;1.60;;;;;;;;;;4294555;33;20122;-66
2022/06/28 12:55:23;;;;;;;2.72;1.30;;;;;;;;;;4301258;33;20187;-65
2022/06/28 12:57:49;;;;;;;1.70;1.60;;;;;;;;;;4288463;33;20108;-64
2022/06/28 13:00:15;;;;;;;1.30;1.30;;;;;;;;;;4292090;33;20566;-61
2022/06/28 13:02:41;;;;;;;1.70;1.60;;;;;;;;;;4302879;33;20098;-63
2022/06/28 13:05:10;;;;;;;7.62;1.70;;;;;;;;;;4303000;33;20207;-63
2022/06/28 13:07:36;;;;;;;3.03;1.60;;;;;;;;;;4302905;33;20122;-63
2022/06/28 13:10:02;;;;;;;3.10;1.75;;;;;;;;;;4291690;33;20100;-63
2022/06/28 13:12:28;;;;;;;3.55;1.70;;;;;;;;;;4288365;33;20440;-64
2022/06/28 13:14:54;;;;;;;5.40;1.70;;;;;;;;;;4275613;33;20134;-64
2022/06/28 13:17:20;;;;;;;5.87;2.08;;;;;;;;;;4290777;33;20192;-64
2022/06/28 13:19:46;;;;;;;3.58;1.87;;;;;;;;;;4290601;33;20088;-65
2022/06/28 13:22:12;;;;;;;4.68;1.90;;;;;;;;;;4290507;33;20116;-66
2022/06/28 13:24:39;;;;;;;2.42;1.73;;;;;;;;;;4277261;33;20103;-65
2022/06/28 13:27:05;;;;;;;8.50;2.00;;;;;;;;;;4276174;33;20111;-64
2022/06/28 13:29:31;;;;;;;3.87;1.62;;;;;;;;;;4305186;33;20462;-64
2022/06/28 13:31:57;;;;;;;3.28;1.75;;;;;;;;;;4304954;33;20115;-64
2022/06/28 13:34:23;;;;;;;2.58;1.70;;;;;;;;;;4304779;33;20230;-64
2022/06/28 13:36:49;;;;;;;1.75;1.65;;;;;;;;;;4304926;33;20206;-64
2022/06/28 13:39:15;;;;;;;3.25;1.60;;;;;;;;;;4305071;33;20115;-64
2022/06/28 13:41:41;;;;;;;3.90;1.73;;;;;;;;;;4305122;33;20459;-65
2022/06/28 13:44:08;;;;;;;3.70;1.73;;;;;;;;;;4304932;33;20111;-64
2022/06/28 13:46:35;;;;;;;5.82;2.10;;;;;;;;;;4304405;33;20563;-63
2022/06/28 13:49:01;;;;;;;3.80;1.80;;;;;;;;;;4291711;33;20182;-65
2022/06/28 13:51:29;;;;;;;1.90;1.70;;;;;;;;;;4291007;33;20115;-66
2022/06/28 13:53:55;;;;;;;6.05;2.00;;;;;;;;;;4296145;33;20124;-65
2022/06/28 13:56:21;;;;;;;2.22;1.65;;;;;;;;;;4290177;33;20100;-67
2022/06/28 13:58:47;;;;;;;5.32;2.17;;;;;;;;;;4290185;33;20211;-65
2022/06/28 14:01:13;;;;;;;7.20;2.08;;;;;;;;;;4290194;33;20099;-68
2022/06/28 14:03:39;;;;;;;2.35;1.87;;;;;;;;;;4276616;33;20115;-66
2022/06/28 14:06:05;;;;;;;2.12;1.92;;;;;;;;;;4290599;33;20115;-65
2022/06/28 14:08:31;;;;;;;6.43;1.95;;;;;;;;;;4276525;33;20127;-66
2022/06/28 14:10:57;;;;;;;2.00;1.90;;;;;;;;;;4280364;33;20433;-63
2022/06/28 14:13:23;;;;;;;2.85;1.85;;;;;;;;;;4297353;33;20127;-63
2022/06/28 14:15:50;;;;;;;2.35;1.77;;;;;;;;;;4295542;33;20123;-63
2022/06/28 14:18:17;;;;;;;2.08;1.80;;;;;;;;;;4290632;33;20115;-64
2022/06/28 14:20:43;;;;;;;6.50;2.15;;;;;;;;;;4292821;33;20142;-63
2022/06/28 14:23:09;;;;;;;2.00;1.80;;;;;;;;;;4289955;33;20120;-63
2022/06/28 14:25:35;;;;;;;3.30;2.00;;;;;;;;;;4289578;33;20098;-64
2022/06/28 14:28:02;;;;;;;2.90;2.00;;;;;;;;;;4289136;33;20516;-64
2022/06/28 14:30:29;;;;;;;2.75;2.17;;;;;;;;;;4291687;33;20139;-64
2022/06/28 14:32:55;;;;;;;10.23;3.17;;;;;;;;;;4294277;33;20175;-65
2022/06/28 14:35:22;;;;;;;4.75;2.30;;;;;;;;;;4264436;33;20444;-65
2022/06/28 14:37:48;;;;;;;4.05;2.22;;;;;;;;;;4289919;33;20202;-64
2022/06/28 14:40:14;;;;;;;3.12;2.30;;;;;;;;;;4289874;33;20302;-65
2022/06/28 14:42:40;;;;;;;3.45;2.40;;;;;;;;;;4276260;33;20096;-64
2022/06/28 14:45:08;;;;;;;4.22;2.47;;;;;;;;;;4289841;33;20247;-64
2022/06/28 14:47:38;;;;;;;4.57;2.58;;;;;;;;;;4289712;33;20429;-64
2022/06/28 14:50:05;;;;;;;5.15;2.35;;;;;;;;;;4289629;33;20119;-64
2022/06/28 14:52:31;;;;;;;4.05;2.60;;;;;;;;;;4276209;33;20182;-64
2022/06/28 14:54:57;;;;;;;6.05;1.98;;;;;;;;;;4289604;33;20187;-63
2022/06/28 14:57:23;;;;;;;4.43;2.40;;;;;;;;;;4289609;33;20119;-64
2022/06/28 14:59:49;;;;;;;6.95;3.40;;;;;;;;;;4276248;33;20123;-65
2022/06/28 15:02:15;;;;;;;3.92;2.67;;;;;;;;;;4289452;33;20127;-64
2022/06/28 15:04:41;;;;;;;4.40;2.58;;;;;;;;;;4276259;33;20099;-64
2022/06/28 15:07:08;;;;;;;5.37;2.53;;;;;;;;;;4289622;33;20129;-64
2022/06/28 15:09:35;;;;;;;3.70;2.60;;;;;;;;;;4289783;33;20519;-63
2022/06/28 15:12:01;;;;;;;8.27;2.80;;;;;;;;;;4289489;33;20119;-63
2022/06/28 15:14:27;;;;;;;3.35;2.42;;;;;;;;;;4289755;33;20112;-63
2022/06/28 15:16:53;;;;;;;2.72;2.03;;;;;;;;;;4289401;33;20146;-63
2022/06/28 15:19:19;;;;;;;4.95;2.40;;;;;;;;;;4289638;33;20103;-63
2022/06/28 15:32:43;;;;;;;5.55;1.95;;;;;;;;;;4289194;33;20099;-64
2022/06/28 15:35:09;;;;;;;6.15;2.05;;;;;;;;;;4264238;33;20558;-64
2022/06/28 15:37:35;;;;;;;4.62;2.80;;;;;;;;;;4262793;33;20190;-65
2022/06/28 15:40:01;;;;;;;7.10;2.35;;;;;;;;;;4298451;33;20523;-63
2022/06/28 15:42:27;;;;;;;12.43;2.62;;;;;;;;;;4294862;33;20119;-65
2022/06/28 15:44:53;;;;;;;6.53;1.87;;;;;;;;;;4294524;33;20115;-69
2022/06/28 15:47:19;;;;;;;2.30;2.10;;;;;;;;;;4299653;33;20123;-64
2022/06/28 15:49:47;;;;;;;6.18;1.98;;;;;;;;;;4285815;33;20127;-66
2022/06/28 15:52:13;;;;;;;11.23;2.20;;;;;;;;;;4292582;33;20088;-65
2022/06/28 15:54:39;;;;;;;4.62;1.80;;;;;;;;;;4303776;33;20118;-63
2022/06/28 15:57:06;;;;;;;2.12;1.92;;;;;;;;;;4303904;33;20131;-64